createdAt,value
2023-05-01T00:01:11.730Z,8.93
2023-05-01T00:04:13.596Z,8.32
2023-05-01T00:07:15.444Z,8.07
2023-05-01T00:10:17.128Z,8.20
2023-05-01T00:13:18.813Z,10.43
2023-05-01T00:16:20.508Z,8.70
2023-05-01T00:19:22.149Z,8.30
2023-05-01T00:22:23.932Z,8.10
2023-05-01T00:25:25.566Z,9.77
2023-05-01T00:28:27.285Z,6.90
2023-05-01T00:31:29.021Z,10.73
2023-05-01T00:34:30.664Z,9.63
2023-05-01T00:37:32.292Z,7.70
2023-05-01T00:40:41.692Z,7.75
2023-05-01T00:43:43.328Z,7.43
2023-05-01T00:46:44.992Z,9.48
2023-05-01T00:49:46.621Z,8.20
2023-05-01T00:52:48.263Z,7.93
2023-05-01T00:55:49.905Z,7.60
2023-05-01T00:58:51.567Z,8.77
2023-05-01T01:01:54.950Z,8.30
2023-05-01T01:04:58.087Z,8.57
2023-05-01T01:08:12.967Z,7.90
2023-05-01T01:11:20.449Z,7.57
2023-05-01T01:14:26.884Z,8.50
2023-05-01T01:17:54.032Z,8.88
2023-05-01T01:21:17.314Z,8.45
2023-05-01T01:24:56.738Z,8.47
2023-05-01T01:28:24.453Z,8.68
2023-05-01T01:31:44.790Z,7.73
2023-05-01T01:34:55.192Z,7.72
2023-05-01T01:38:26.913Z,7.43
2023-05-01T01:41:33.987Z,8.45
2023-05-01T01:44:51.517Z,9.70
2023-05-01T01:47:53.285Z,8.80
2023-05-01T01:50:54.944Z,9.68
2023-05-01T01:53:57.104Z,7.45
2023-05-01T01:56:59.653Z,7.78
2023-05-01T02:00:01.449Z,7.68
2023-05-01T02:03:03.207Z,9.50
2023-05-01T02:06:05.027Z,8.60
2023-05-01T02:09:06.736Z,8.77
2023-05-01T02:12:08.505Z,8.90
2023-05-01T02:15:10.276Z,9.07
2023-05-01T02:18:12.595Z,8.77
2023-05-01T02:21:14.210Z,7.95
2023-05-01T02:24:15.891Z,7.80
2023-05-01T02:27:20.710Z,7.93
2023-05-01T02:30:23.792Z,8.50
2023-05-01T02:33:25.442Z,7.13
2023-05-01T02:36:27.731Z,8.90
2023-05-01T02:39:29.406Z,9.88
2023-05-01T02:42:31.394Z,8.52
2023-05-01T02:45:33.144Z,9.88
2023-05-01T02:48:34.805Z,9.13
2023-05-01T02:51:36.487Z,8.23
2023-05-01T02:54:38.126Z,7.10
2023-05-01T02:57:39.989Z,8.35
2023-05-01T03:00:41.774Z,8.00
2023-05-01T03:03:43.493Z,7.93
2023-05-01T03:06:45.370Z,7.68
2023-05-01T03:09:47.130Z,7.68
2023-05-01T03:12:48.750Z,8.10
2023-05-01T03:15:50.472Z,8.48
2023-05-01T03:18:52.121Z,7.45
2023-05-01T03:21:53.779Z,10.80
2023-05-01T03:24:55.445Z,10.32
2023-05-01T03:27:57.150Z,9.82
2023-05-01T03:30:59.308Z,8.23
2023-05-01T03:34:00.981Z,10.60
2023-05-01T03:37:02.648Z,7.10
2023-05-01T03:40:04.631Z,8.53
2023-05-01T03:43:12.134Z,8.30
2023-05-01T03:46:13.848Z,9.50
2023-05-01T03:49:15.865Z,8.10
2023-05-01T03:52:21.439Z,7.30
2023-05-01T03:55:23.920Z,8.77
2023-05-01T03:58:27.199Z,10.60
2023-05-01T04:01:28.938Z,9.63
2023-05-01T04:04:30.874Z,9.75
2023-05-01T04:07:33.438Z,8.57
2023-05-01T04:10:35.115Z,11.00
2023-05-01T04:13:39.575Z,8.38
2023-05-01T04:16:41.857Z,8.23
2023-05-01T04:19:43.583Z,9.15
2023-05-01T04:22:45.607Z,8.52
2023-05-01T04:25:47.275Z,9.23
2023-05-01T04:28:52.128Z,8.18
2023-05-01T04:31:57.855Z,8.55
2023-05-01T04:34:59.913Z,10.10
2023-05-01T04:38:02.112Z,7.55
2023-05-01T04:41:07.468Z,8.60
2023-05-01T04:44:09.115Z,7.78
2023-05-01T04:47:10.815Z,9.40
2023-05-01T04:50:12.466Z,9.27
2023-05-01T04:53:14.088Z,8.27
2023-05-01T04:56:15.753Z,9.25
2023-05-01T04:59:17.481Z,9.02
2023-05-01T05:02:19.260Z,8.60
2023-05-01T05:05:20.920Z,10.48
2023-05-01T05:08:23.473Z,8.82
2023-05-01T05:11:45.423Z,9.57
2023-05-01T05:14:54.998Z,10.50
2023-05-01T05:17:56.869Z,9.18
2023-05-01T05:21:02.644Z,9.60
2023-05-01T05:24:04.389Z,7.93
2023-05-01T05:27:06.119Z,8.25
2023-05-01T05:30:08.382Z,25.17
2023-05-01T05:33:12.010Z,8.80
2023-05-01T05:36:13.744Z,10.20
2023-05-01T05:39:17.706Z,9.13
2023-05-01T05:42:19.380Z,9.43
2023-05-01T05:45:21.174Z,8.50
2023-05-01T05:48:23.034Z,10.48
2023-05-01T05:51:24.788Z,12.18
2023-05-01T05:54:26.520Z,9.15
2023-05-01T05:57:28.351Z,10.45
2023-05-01T06:00:30.278Z,9.52
2023-05-01T06:03:35.824Z,11.38
2023-05-01T06:06:37.705Z,10.20
2023-05-01T06:09:40.125Z,10.43
2023-05-01T06:12:44.267Z,10.75
2023-05-01T06:15:54.196Z,14.57
2023-05-01T06:18:55.931Z,10.23
2023-05-01T06:21:57.641Z,10.77
2023-05-01T06:24:59.280Z,9.38
2023-05-01T06:28:02.492Z,8.77
2023-05-01T06:31:04.644Z,9.80
2023-05-01T06:34:10.132Z,8.70
2023-05-01T06:37:21.163Z,8.32
2023-05-01T06:40:22.806Z,8.85
2023-05-01T06:43:24.565Z,9.55
2023-05-01T06:46:27.831Z,8.37
2023-05-01T06:49:29.512Z,9.80
2023-05-01T06:52:31.203Z,8.40
2023-05-01T06:55:35.219Z,7.97
2023-05-01T06:58:37.574Z,8.35
2023-05-01T07:01:39.266Z,14.32
2023-05-01T07:04:40.940Z,10.90
2023-05-01T07:07:50.522Z,10.43
2023-05-01T07:10:59.809Z,9.07
2023-05-01T07:14:01.523Z,9.07
2023-05-01T07:17:03.553Z,10.00
2023-05-01T07:20:05.894Z,8.27
2023-05-01T07:23:07.856Z,9.85
2023-05-01T07:26:09.494Z,10.93
2023-05-01T07:29:11.120Z,12.00
2023-05-01T07:32:12.841Z,9.15
2023-05-01T07:35:14.486Z,9.68
2023-05-01T07:38:17.410Z,11.52
2023-05-01T07:41:19.067Z,9.57
2023-05-01T07:44:20.717Z,8.82
2023-05-01T07:47:22.414Z,12.70
2023-05-01T07:50:24.292Z,11.47
2023-05-01T07:53:25.919Z,10.20
2023-05-01T07:56:27.593Z,8.77
2023-05-01T07:59:29.246Z,9.65
2023-05-01T08:02:31.093Z,9.18
2023-05-01T08:05:32.797Z,9.75
2023-05-01T08:08:34.452Z,10.00
2023-05-01T08:11:36.103Z,10.70
2023-05-01T08:14:37.733Z,10.10
2023-05-01T08:17:39.393Z,10.30
2023-05-01T08:20:41.039Z,10.05
2023-05-01T08:23:42.699Z,10.32
2023-05-01T08:26:44.363Z,10.18
2023-05-01T08:29:46.003Z,9.80
2023-05-01T08:32:47.678Z,9.90
2023-05-01T08:35:49.318Z,10.53
2023-05-01T08:38:50.970Z,9.13
2023-05-01T08:41:52.623Z,11.57
2023-05-01T08:44:54.295Z,9.05
2023-05-01T08:47:55.981Z,10.32
2023-05-01T08:50:57.660Z,19.77
2023-05-01T08:54:00.177Z,10.65
2023-05-01T08:57:02.088Z,11.68
2023-05-01T09:00:04.028Z,13.30
2023-05-01T09:03:08.597Z,11.83
2023-05-01T09:06:10.861Z,10.25
2023-05-01T09:09:12.492Z,10.27
2023-05-01T09:12:24.678Z,9.27
2023-05-01T09:15:26.779Z,8.70
2023-05-01T09:18:28.414Z,8.48
2023-05-01T09:21:30.080Z,7.45
2023-05-01T09:24:31.706Z,13.75
2023-05-01T09:27:37.381Z,7.57
2023-05-01T09:30:39.012Z,7.73
2023-05-01T09:33:56.972Z,7.85
2023-05-01T09:36:58.558Z,7.43
2023-05-01T09:40:03.047Z,8.07
2023-05-01T09:43:04.711Z,7.15
2023-05-01T09:46:07.435Z,7.38
2023-05-01T09:49:09.170Z,7.32
2023-05-01T09:52:11.394Z,6.93
2023-05-01T09:55:16.786Z,6.68
2023-05-01T09:58:27.472Z,7.97
2023-05-01T10:01:39.504Z,9.18
2023-05-01T10:04:41.404Z,7.15
2023-05-01T10:07:59.722Z,6.55
2023-05-01T10:11:04.132Z,17.45
2023-05-01T10:14:09.392Z,7.18
2023-05-01T10:17:17.628Z,10.23
2023-05-01T10:20:22.331Z,9.00
2023-05-01T10:23:24.899Z,8.38
2023-05-01T10:26:26.906Z,8.93
2023-05-01T10:29:28.526Z,7.20
2023-05-01T10:32:30.190Z,8.85
2023-05-01T10:35:34.156Z,6.15
2023-05-01T10:38:35.824Z,6.50
2023-05-01T10:42:02.510Z,7.32
2023-05-01T10:45:29.091Z,6.82
2023-05-01T10:48:39.785Z,7.57
2023-05-01T10:52:00.531Z,8.80
2023-05-01T10:55:50.332Z,7.63
2023-05-01T10:58:59.247Z,6.75
2023-05-01T11:02:00.921Z,6.13
2023-05-01T11:05:02.586Z,6.60
2023-05-01T11:08:29.561Z,6.07
2023-05-01T11:11:31.052Z,7.22
2023-05-01T11:14:54.574Z,6.80
2023-05-01T11:17:57.559Z,7.37
2023-05-01T11:20:59.210Z,5.70
2023-05-01T11:24:04.252Z,6.63
2023-05-01T11:27:06.700Z,6.73
2023-05-01T11:30:08.824Z,6.75
2023-05-01T11:33:11.259Z,6.07
2023-05-01T11:36:13.067Z,6.20
2023-05-01T11:39:15.041Z,5.28
2023-05-01T11:42:16.736Z,7.03
2023-05-01T11:45:19.425Z,8.65
2023-05-01T11:48:21.095Z,13.65
2023-05-01T11:51:23.173Z,6.10
2023-05-01T11:54:24.804Z,5.88
2023-05-01T11:57:26.449Z,4.38
2023-05-01T12:00:34.969Z,4.88
2023-05-01T12:03:42.959Z,5.22
2023-05-01T12:06:45.392Z,4.50
2023-05-01T12:09:47.208Z,7.05
2023-05-01T12:12:48.843Z,4.90
2023-05-01T12:15:54.440Z,6.75
2023-05-01T12:18:56.358Z,4.38
2023-05-01T12:22:09.886Z,4.65
2023-05-01T12:25:11.505Z,4.77
2023-05-01T12:28:17.280Z,4.70
2023-05-01T12:31:19.001Z,5.65
2023-05-01T12:34:20.633Z,5.70
2023-05-01T12:37:22.426Z,4.40
2023-05-01T12:40:24.122Z,5.13
2023-05-01T12:43:33.422Z,4.28
2023-05-01T12:46:35.172Z,5.03
2023-05-01T12:49:37.460Z,4.70
2023-05-01T12:52:39.171Z,4.68
2023-05-01T12:55:47.797Z,5.15
2023-05-01T12:58:49.702Z,4.97
2023-05-01T13:02:01.078Z,4.25
2023-05-01T13:05:09.761Z,4.47
2023-05-01T13:08:11.429Z,3.45
2023-05-01T13:11:16.965Z,3.92
2023-05-01T13:14:18.714Z,3.20
2023-05-01T13:17:27.089Z,3.83
2023-05-01T13:20:28.890Z,4.38
2023-05-01T13:23:30.525Z,4.13
2023-05-01T13:26:33.088Z,3.92
2023-05-01T13:29:35.073Z,3.28
2023-05-01T13:32:39.436Z,4.85
2023-05-01T13:35:41.087Z,3.97
2023-05-01T13:38:45.344Z,4.50
2023-05-01T13:41:47.042Z,5.05
2023-05-01T13:44:51.579Z,3.88
2023-05-01T13:47:53.238Z,3.87
2023-05-01T13:50:54.966Z,3.93
2023-05-01T13:53:56.687Z,4.47
2023-05-01T13:56:58.329Z,4.68
2023-05-01T14:00:00.070Z,3.42
2023-05-01T14:03:01.809Z,5.60
2023-05-01T14:06:03.626Z,3.17
2023-05-01T14:09:05.325Z,3.13
2023-05-01T14:12:06.967Z,3.95
2023-05-01T14:15:09.811Z,3.65
2023-05-01T14:18:16.652Z,5.25
2023-05-01T14:21:18.491Z,5.32
2023-05-01T14:24:20.127Z,5.05
2023-05-01T14:27:21.754Z,3.60
2023-05-01T14:30:26.454Z,3.65
2023-05-01T14:33:28.044Z,3.03
2023-05-01T14:36:29.772Z,3.55
2023-05-01T14:39:32.319Z,4.43
2023-05-01T14:42:34.610Z,3.00
2023-05-01T14:45:36.518Z,2.78
2023-05-01T14:48:38.149Z,3.85
2023-05-01T14:51:39.778Z,3.10
2023-05-01T14:54:45.760Z,3.03
2023-05-01T14:57:48.719Z,3.92
2023-05-01T15:00:50.359Z,5.15
2023-05-01T15:03:52.071Z,3.33
2023-05-01T15:06:55.606Z,2.93
2023-05-01T15:09:57.248Z,3.33
2023-05-01T15:12:58.914Z,4.13
2023-05-01T15:16:00.631Z,2.13
2023-05-01T15:19:02.368Z,3.17
2023-05-01T15:22:04.043Z,2.95
2023-05-01T15:25:07.606Z,3.70
2023-05-01T15:28:09.208Z,5.97
2023-05-01T15:31:10.874Z,3.13
2023-05-01T15:34:12.517Z,2.80
2023-05-01T15:37:14.188Z,2.38
2023-05-01T15:40:15.829Z,3.03
2023-05-01T15:43:17.435Z,2.73
2023-05-01T15:46:19.195Z,2.85
2023-05-01T15:49:20.862Z,3.03
2023-05-01T15:52:22.501Z,3.03
2023-05-01T15:55:24.124Z,2.92
2023-05-01T15:58:25.799Z,2.88
2023-05-01T16:01:27.463Z,4.47
2023-05-01T16:04:29.101Z,3.40
2023-05-01T16:07:30.771Z,3.00
2023-05-01T16:10:33.280Z,3.38
2023-05-01T16:13:38.706Z,5.13
2023-05-01T16:16:41.294Z,3.13
2023-05-01T16:19:42.949Z,3.53
2023-05-01T16:22:44.615Z,4.93
2023-05-01T16:25:46.317Z,3.08
2023-05-01T16:28:48.281Z,2.90
2023-05-01T16:31:49.963Z,6.40
2023-05-01T16:34:51.589Z,5.37
2023-05-01T16:37:53.373Z,3.47
2023-05-01T16:40:55.031Z,4.38
2023-05-01T16:43:59.690Z,5.47
2023-05-01T16:47:01.334Z,10.82
2023-05-01T16:50:03.318Z,6.93
2023-05-01T16:53:05.216Z,4.68
2023-05-01T16:56:06.930Z,6.18
2023-05-01T16:59:08.660Z,4.18
2023-05-01T17:02:10.417Z,5.30
2023-05-01T17:05:12.043Z,4.43
2023-05-01T17:08:13.691Z,4.07
2023-05-01T17:11:15.352Z,3.38
2023-05-01T17:14:17.858Z,4.80
2023-05-01T17:17:19.463Z,7.97
2023-05-01T17:20:21.114Z,3.67
2023-05-01T17:23:23.021Z,5.05
2023-05-01T17:26:24.747Z,5.80
2023-05-01T17:29:31.057Z,4.32
2023-05-01T17:32:36.832Z,4.85
2023-05-01T17:35:39.411Z,4.32
2023-05-01T17:38:41.278Z,5.78
2023-05-01T17:41:42.988Z,5.72
2023-05-01T17:44:44.609Z,4.95
2023-05-01T17:47:46.613Z,14.23
2023-05-01T17:50:48.460Z,7.55
2023-05-01T17:53:50.272Z,4.72
2023-05-01T17:56:51.920Z,3.85
2023-05-01T17:59:53.542Z,7.88
2023-05-01T18:02:55.319Z,7.10
2023-05-01T18:05:57.218Z,3.63
2023-05-01T18:08:59.061Z,3.22
2023-05-01T18:12:00.857Z,4.28
2023-05-01T18:15:03.944Z,3.80
2023-05-01T18:18:05.965Z,3.50
2023-05-01T18:21:07.780Z,4.28
2023-05-01T18:24:09.433Z,4.75
2023-05-01T18:27:12.352Z,5.88
2023-05-01T18:30:14.286Z,4.65
2023-05-01T18:33:16.261Z,3.83
2023-05-01T18:36:18.966Z,5.47
2023-05-01T18:39:21.522Z,4.15
2023-05-01T18:42:23.641Z,3.45
2023-05-01T18:45:26.164Z,3.63
2023-05-01T18:48:28.624Z,3.92
2023-05-01T18:51:31.985Z,3.30
2023-05-01T18:54:34.006Z,2.97
2023-05-01T18:57:36.348Z,3.28
2023-05-01T19:00:41.461Z,4.15
2023-05-01T19:03:43.629Z,3.30
2023-05-01T19:06:46.125Z,4.07
2023-05-01T19:09:48.369Z,3.40
2023-05-01T19:12:50.665Z,3.50
2023-05-01T19:15:52.799Z,4.80
2023-05-01T19:18:54.809Z,4.35
2023-05-01T19:21:57.620Z,4.00
2023-05-01T19:25:00.463Z,4.60
2023-05-01T19:28:03.126Z,4.97
2023-05-01T19:31:05.433Z,3.92
2023-05-01T19:34:07.493Z,4.90
2023-05-01T19:37:09.160Z,5.53
2023-05-01T19:40:11.108Z,5.10
2023-05-01T19:43:13.564Z,4.15
2023-05-01T19:46:16.373Z,4.60
2023-05-01T19:49:18.905Z,5.10
2023-05-01T19:52:21.929Z,4.75
2023-05-01T19:55:24.209Z,3.53
2023-05-01T19:58:26.269Z,4.63
2023-05-01T20:01:28.560Z,3.95
2023-05-01T20:04:30.431Z,4.72
2023-05-01T20:07:32.581Z,4.43
2023-05-01T20:10:34.321Z,4.75
2023-05-01T20:13:37.175Z,4.27
2023-05-01T20:16:39.094Z,4.97
2023-05-01T20:19:40.721Z,4.20
2023-05-01T20:22:42.404Z,4.03
2023-05-01T20:25:44.207Z,4.13
2023-05-01T20:28:45.991Z,5.53
2023-05-01T20:31:49.208Z,4.43
2023-05-01T20:34:50.891Z,4.13
2023-05-01T20:37:52.544Z,4.38
2023-05-01T20:40:54.195Z,3.83
2023-05-01T20:43:56.320Z,4.80
2023-05-01T20:46:58.179Z,4.88
2023-05-01T20:50:00.085Z,5.07
2023-05-01T20:53:01.873Z,4.35
2023-05-01T20:56:03.591Z,5.55
2023-05-01T20:59:05.223Z,5.07
2023-05-01T21:02:06.999Z,6.10
2023-05-01T21:05:10.599Z,4.35
2023-05-01T21:08:12.251Z,4.20
2023-05-01T21:11:13.872Z,4.60
2023-05-01T21:14:15.614Z,4.47
2023-05-01T21:17:17.229Z,4.95
2023-05-01T21:20:32.590Z,6.75
2023-05-01T21:23:34.231Z,5.10
2023-05-01T21:26:35.886Z,5.15
2023-05-01T21:29:38.986Z,4.78
2023-05-01T21:32:40.803Z,4.88
2023-05-01T21:35:42.893Z,4.75
2023-05-01T21:38:44.565Z,4.22
2023-05-01T21:41:47.502Z,5.68
2023-05-01T21:44:49.144Z,4.78
2023-05-01T21:47:51.094Z,6.00
2023-05-01T21:50:52.910Z,5.60
2023-05-01T21:53:54.832Z,6.38
2023-05-01T21:57:00.184Z,6.38
2023-05-01T22:00:02.036Z,4.60
2023-05-01T22:03:04.537Z,4.82
2023-05-01T22:06:06.252Z,4.78
2023-05-01T22:09:07.950Z,5.85
2023-05-01T22:12:09.585Z,6.13
2023-05-01T22:15:12.336Z,5.05
2023-05-01T22:18:14.056Z,4.78
2023-05-01T22:21:15.710Z,5.90
2023-05-01T22:24:17.347Z,5.50
2023-05-01T22:27:18.984Z,6.18
2023-05-01T22:30:20.639Z,5.75
2023-05-01T22:33:22.282Z,5.25
2023-05-01T22:36:23.923Z,6.13
2023-05-01T22:39:25.829Z,6.45
2023-05-01T22:42:27.457Z,5.90
2023-05-01T22:45:29.081Z,5.70
2023-05-01T22:48:30.733Z,5.00
2023-05-01T22:51:32.360Z,5.20
2023-05-01T22:54:33.959Z,5.50
2023-05-01T22:57:35.603Z,5.40
2023-05-01T23:00:37.264Z,5.25
2023-05-01T23:03:39.205Z,5.07
2023-05-01T23:06:41.031Z,5.80
2023-05-01T23:09:42.799Z,6.63
2023-05-01T23:12:44.480Z,6.30
2023-05-01T23:15:46.620Z,5.82
2023-05-01T23:18:48.301Z,7.28
2023-05-01T23:21:50.558Z,4.82
2023-05-01T23:24:52.234Z,4.93
2023-05-01T23:27:54.862Z,4.95
2023-05-01T23:30:58.154Z,4.85
2023-05-01T23:34:01.876Z,6.05
2023-05-01T23:37:03.704Z,7.13
2023-05-01T23:40:06.480Z,5.50
2023-05-01T23:43:08.095Z,5.55
2023-05-01T23:46:09.771Z,7.18
2023-05-01T23:49:11.444Z,5.65
2023-05-01T23:52:13.090Z,5.88
2023-05-01T23:55:14.738Z,5.90
2023-05-01T23:58:16.358Z,5.80
